This is the latest recevied weather packets stored in our database for station/object N8SDR. If no packets are shown the sender has not sent any weather packets the latest 1 day(s).
| Time | Temp. | Humidity | Pressure | Rain* | Wind** | Luminosity | Snow |
|---|---|---|---|---|---|---|---|
| 1777974455 | 14.44° C | 96% | 1005.8 hPa | 4.83 mm | 1.34 m/s, 309° | 0 W/m² | - |
| 1777974152 | 14.44° C | 95% | 1006 hPa | 3.05 mm | 1.34 m/s, 333° | 0 W/m² | - |
| 1777973848 | 15° C | 94% | 1005.7 hPa | 1.27 mm | 2.24 m/s, 320° | 0 W/m² | - |
| 1777973545 | 15° C | 92% | 1005.8 hPa | 1.78 mm | 2.68 m/s, 331° | 0 W/m² | - |
| 1777973242 | 15.56° C | 91% | 1005.6 hPa | 1.78 mm | 1.34 m/s, 336° | 0 W/m² | - |
| 1777972941 | 15.56° C | 90% | 1005.6 hPa | 0 mm | 0.89 m/s, 339° | 0 W/m² | - |
| 1777972637 | 15.56° C | 90% | 1005.7 hPa | 0 mm | 1.34 m/s, 337° | 0 W/m² | - |
| 1777972336 | 16.11° C | 89% | 1005.5 hPa | 0 mm | 1.34 m/s, 346° | 0 W/m² | - |
| 1777972033 | 16.11° C | 87% | 1005.1 hPa | 0 mm | 0.89 m/s, 342° | 0 W/m² | - |
| 1777971731 | 16.67° C | 84% | 1005 hPa | 0 mm | 1.79 m/s, 359° | 0 W/m² | - |
| 1777971428 | 16.67° C | 82% | 1004.8 hPa | 0 mm | 0.45 m/s, 358° | 0 W/m² | - |
| 1777971126 | 16.67° C | 81% | 1004.8 hPa | 0 mm | 0 m/s | 0 W/m² | - |
| 1777970823 | 17.22° C | 80% | 1005.2 hPa | 0 mm | 1.79 m/s, 338° | 0 W/m² | - |
| 1777970522 | 17.22° C | 77% | 1004.8 hPa | 0 mm | 1.34 m/s, 343° | 0 W/m² | - |
| 1777970219 | 17.22° C | 75% | 1004.3 hPa | 0 mm | 0 m/s | 0 W/m² | - |
| 1777969915 | 17.78° C | 75% | 1004.2 hPa | 0 mm | 0 m/s | 0 W/m² | - |
| 1777969611 | 17.78° C | 74% | 1004 hPa | 0 mm | 0 m/s | 0 W/m² | - |
| 1777969308 | 17.78° C | 73% | 1004 hPa | 0 mm | 0 m/s | 0 W/m² | - |
| 1777969004 | 18.33° C | 71% | 1003.7 hPa | 0 mm | 0.45 m/s, 331° | 0 W/m² | - |
| 1777968702 | 18.33° C | 70% | 1003.7 hPa | 0 mm | 0.89 m/s, 192° | 0 W/m² | - |
| 1777968399 | 18.33° C | 70% | 1003.7 hPa | 0 mm | 0 m/s | 0 W/m² | - |
| 1777968095 | 18.89° C | 68% | 1003.7 hPa | 0 mm | 2.68 m/s, 321° | 0 W/m² | - |
| 1777967791 | 18.89° C | 68% | 1003.6 hPa | 0 mm | 0 m/s | 0 W/m² | - |
| 1777967488 | 18.89° C | 68% | 1003.6 hPa | 0 mm | 0 m/s | 0 W/m² | - |
| 1777967185 | 18.89° C | 68% | 1003.6 hPa | 0 mm | 0 m/s | 0 W/m² | - |
* Rain latest hour (hover to see other rain measurements)
** Current wind speed in m/s (hover to see current wind gust speed)